sensor_id;sensor_type;location;lat;lon;timestamp;temperature;humidity
41262;DHT22;29629;52.532;13.352;2023-03-23T00:01:22;13.00;99.90
41262;DHT22;29629;52.532;13.352;2023-03-23T00:03:52;13.00;99.90
41262;DHT22;29629;52.532;13.352;2023-03-23T00:06:19;13.00;99.90
41262;DHT22;29629;52.532;13.352;2023-03-23T00:08:47;12.90;99.90
41262;DHT22;29629;52.532;13.352;2023-03-23T00:11:16;12.90;99.90
41262;DHT22;29629;52.532;13.352;2023-03-23T00:13:44;12.90;99.90
41262;DHT22;29629;52.532;13.352;2023-03-23T00:16:13;12.90;99.90
41262;DHT22;29629;52.532;13.352;2023-03-23T00:18:44;12.80;99.90
41262;DHT22;29629;52.532;13.352;2023-03-23T00:21:10;12.80;99.90
41262;DHT22;29629;52.532;13.352;2023-03-23T00:23:37;12.70;99.90
41262;DHT22;29629;52.532;13.352;2023-03-23T00:26:05;12.70;99.90
41262;DHT22;29629;52.532;13.352;2023-03-23T00:28:31;12.70;99.90
41262;DHT22;29629;52.532;13.352;2023-03-23T00:30:59;12.70;99.90
41262;DHT22;29629;52.532;13.352;2023-03-23T00:33:28;12.70;99.90
41262;DHT22;29629;52.532;13.352;2023-03-23T00:35:55;12.60;99.90
41262;DHT22;29629;52.532;13.352;2023-03-23T00:38:22;12.60;99.90
41262;DHT22;29629;52.532;13.352;2023-03-23T00:40:50;12.60;99.90
41262;DHT22;29629;52.532;13.352;2023-03-23T00:43:18;12.60;99.90
41262;DHT22;29629;52.532;13.352;2023-03-23T00:45:45;12.60;99.90
41262;DHT22;29629;52.532;13.352;2023-03-23T00:48:17;12.60;99.90
41262;DHT22;29629;52.532;13.352;2023-03-23T00:50:45;12.60;99.90
41262;DHT22;29629;52.532;13.352;2023-03-23T00:53:12;12.50;99.90
41262;DHT22;29629;52.532;13.352;2023-03-23T00:55:40;12.50;99.90
41262;DHT22;29629;52.532;13.352;2023-03-23T00:58:07;12.50;99.90
41262;DHT22;29629;52.532;13.352;2023-03-23T01:00:34;12.50;99.90
41262;DHT22;29629;52.532;13.352;2023-03-23T01:03:01;12.50;99.90
41262;DHT22;29629;52.532;13.352;2023-03-23T01:05:27;12.40;99.90
41262;DHT22;29629;52.532;13.352;2023-03-23T01:07:58;12.40;99.90
41262;DHT22;29629;52.532;13.352;2023-03-23T01:10:25;12.40;99.90
41262;DHT22;29629;52.532;13.352;2023-03-23T01:12:52;12.40;99.90
41262;DHT22;29629;52.532;13.352;2023-03-23T01:15:19;12.30;99.90
41262;DHT22;29629;52.532;13.352;2023-03-23T01:17:46;12.40;99.90
41262;DHT22;29629;52.532;13.352;2023-03-23T01:20:14;12.40;99.90
41262;DHT22;29629;52.532;13.352;2023-03-23T01:22:41;12.30;99.90
41262;DHT22;29629;52.532;13.352;2023-03-23T01:25:10;12.30;99.90
41262;DHT22;29629;52.532;13.352;2023-03-23T01:27:37;12.30;99.90
41262;DHT22;29629;52.532;13.352;2023-03-23T01:30:05;12.30;99.90
41262;DHT22;29629;52.532;13.352;2023-03-23T01:32:32;12.20;99.90
41262;DHT22;29629;52.532;13.352;2023-03-23T01:34:59;12.20;99.90
41262;DHT22;29629;52.532;13.352;2023-03-23T01:37:26;12.20;99.90
41262;DHT22;29629;52.532;13.352;2023-03-23T01:39:53;12.20;99.90
41262;DHT22;29629;52.532;13.352;2023-03-23T01:42:22;12.20;99.90
41262;DHT22;29629;52.532;13.352;2023-03-23T01:47:31;12.20;99.90
41262;DHT22;29629;52.532;13.352;2023-03-23T01:49:57;12.20;99.90
41262;DHT22;29629;52.532;13.352;2023-03-23T01:52:25;12.20;99.90
41262;DHT22;29629;52.532;13.352;2023-03-23T01:54:54;12.30;99.90
41262;DHT22;29629;52.532;13.352;2023-03-23T01:57:24;12.20;99.90
41262;DHT22;29629;52.532;13.352;2023-03-23T01:59:53;12.30;99.90
41262;DHT22;29629;52.532;13.352;2023-03-23T02:02:21;12.30;99.90
41262;DHT22;29629;52.532;13.352;2023-03-23T02:04:49;12.30;99.90
41262;DHT22;29629;52.532;13.352;2023-03-23T02:07:17;12.30;99.90
41262;DHT22;29629;52.532;13.352;2023-03-23T02:09:44;12.30;99.90
41262;DHT22;29629;52.532;13.352;2023-03-23T02:12:11;12.30;99.90
41262;DHT22;29629;52.532;13.352;2023-03-23T02:14:39;12.30;99.90
41262;DHT22;29629;52.532;13.352;2023-03-23T02:17:07;12.30;99.90
41262;DHT22;29629;52.532;13.352;2023-03-23T02:19:48;12.20;99.90
41262;DHT22;29629;52.532;13.352;2023-03-23T02:22:35;12.30;99.90
41262;DHT22;29629;52.532;13.352;2023-03-23T02:25:10;12.30;99.90
41262;DHT22;29629;52.532;13.352;2023-03-23T02:30:31;12.30;99.90
41262;DHT22;29629;52.532;13.352;2023-03-23T02:33:20;12.40;99.90
41262;DHT22;29629;52.532;13.352;2023-03-23T02:35:52;12.30;99.90
41262;DHT22;29629;52.532;13.352;2023-03-23T02:38:20;12.40;99.90
41262;DHT22;29629;52.532;13.352;2023-03-23T02:40:48;12.30;99.90
41262;DHT22;29629;52.532;13.352;2023-03-23T02:43:16;12.40;99.90
41262;DHT22;29629;52.532;13.352;2023-03-23T02:45:45;12.30;99.90
41262;DHT22;29629;52.532;13.352;2023-03-23T02:48:13;12.30;99.90
41262;DHT22;29629;52.532;13.352;2023-03-23T02:50:42;12.20;99.90
41262;DHT22;29629;52.532;13.352;2023-03-23T02:53:10;12.10;99.90
41262;DHT22;29629;52.532;13.352;2023-03-23T02:55:40;12.00;99.90
41262;DHT22;29629;52.532;13.352;2023-03-23T02:58:08;11.90;99.90
41262;DHT22;29629;52.532;13.352;2023-03-23T03:00:34;12.00;99.90
41262;DHT22;29629;52.532;13.352;2023-03-23T03:03:01;12.00;99.90
41262;DHT22;29629;52.532;13.352;2023-03-23T03:05:33;12.00;99.90
41262;DHT22;29629;52.532;13.352;2023-03-23T03:08:05;11.90;99.90
41262;DHT22;29629;52.532;13.352;2023-03-23T03:10:35;12.00;99.90
41262;DHT22;29629;52.532;13.352;2023-03-23T03:13:05;12.00;99.90
41262;DHT22;29629;52.532;13.352;2023-03-23T03:15:33;12.00;99.90
41262;DHT22;29629;52.532;13.352;2023-03-23T03:18:03;12.00;99.90
41262;DHT22;29629;52.532;13.352;2023-03-23T03:20:32;12.00;99.90
41262;DHT22;29629;52.532;13.352;2023-03-23T03:23:00;11.90;99.90
41262;DHT22;29629;52.532;13.352;2023-03-23T03:25:29;11.90;99.90
41262;DHT22;29629;52.532;13.352;2023-03-23T03:27:56;11.90;99.90
41262;DHT22;29629;52.532;13.352;2023-03-23T03:30:25;12.00;99.90
41262;DHT22;29629;52.532;13.352;2023-03-23T03:32:53;12.00;99.90
41262;DHT22;29629;52.532;13.352;2023-03-23T03:35:21;12.00;99.90
41262;DHT22;29629;52.532;13.352;2023-03-23T03:37:48;11.90;99.90
41262;DHT22;29629;52.532;13.352;2023-03-23T03:40:16;11.90;99.90
41262;DHT22;29629;52.532;13.352;2023-03-23T03:42:45;11.90;99.90
41262;DHT22;29629;52.532;13.352;2023-03-23T03:45:14;11.80;99.90
41262;DHT22;29629;52.532;13.352;2023-03-23T03:47:41;11.70;99.90
41262;DHT22;29629;52.532;13.352;2023-03-23T03:50:08;11.70;99.90
41262;DHT22;29629;52.532;13.352;2023-03-23T03:52:35;11.70;99.90
41262;DHT22;29629;52.532;13.352;2023-03-23T03:55:04;11.70;99.90
41262;DHT22;29629;52.532;13.352;2023-03-23T03:57:32;11.70;99.90
41262;DHT22;29629;52.532;13.352;2023-03-23T04:00:00;11.70;99.90
41262;DHT22;29629;52.532;13.352;2023-03-23T04:02:31;11.70;99.90
41262;DHT22;29629;52.532;13.352;2023-03-23T04:04:58;11.70;99.90
41262;DHT22;29629;52.532;13.352;2023-03-23T04:07:28;11.70;99.90
41262;DHT22;29629;52.532;13.352;2023-03-23T04:09:55;11.70;99.90
41262;DHT22;29629;52.532;13.352;2023-03-23T04:12:22;11.70;99.90
41262;DHT22;29629;52.532;13.352;2023-03-23T04:14:48;11.70;99.90
41262;DHT22;29629;52.532;13.352;2023-03-23T04:17:16;11.60;99.90
41262;DHT22;29629;52.532;13.352;2023-03-23T04:19:45;11.60;99.90
41262;DHT22;29629;52.532;13.352;2023-03-23T04:22:12;11.60;99.90
41262;DHT22;29629;52.532;13.352;2023-03-23T04:24:41;11.60;99.90
41262;DHT22;29629;52.532;13.352;2023-03-23T04:27:08;11.70;99.90
41262;DHT22;29629;52.532;13.352;2023-03-23T04:29:38;11.70;99.90
41262;DHT22;29629;52.532;13.352;2023-03-23T04:32:05;11.70;99.90
41262;DHT22;29629;52.532;13.352;2023-03-23T04:34:33;11.70;99.90
41262;DHT22;29629;52.532;13.352;2023-03-23T04:37:00;11.70;99.90
41262;DHT22;29629;52.532;13.352;2023-03-23T04:39:27;11.70;99.90
41262;DHT22;29629;52.532;13.352;2023-03-23T04:41:54;11.70;99.90
41262;DHT22;29629;52.532;13.352;2023-03-23T04:44:21;11.60;99.90
41262;DHT22;29629;52.532;13.352;2023-03-23T04:46:47;11.70;99.90
41262;DHT22;29629;52.532;13.352;2023-03-23T04:49:15;11.60;99.90
41262;DHT22;29629;52.532;13.352;2023-03-23T04:51:47;11.50;99.90
41262;DHT22;29629;52.532;13.352;2023-03-23T04:54:16;11.50;99.90
41262;DHT22;29629;52.532;13.352;2023-03-23T04:56:42;11.50;99.90
41262;DHT22;29629;52.532;13.352;2023-03-23T04:59:09;11.50;99.90
41262;DHT22;29629;52.532;13.352;2023-03-23T05:01:36;11.50;99.90
41262;DHT22;29629;52.532;13.352;2023-03-23T05:04:04;11.50;99.90
41262;DHT22;29629;52.532;13.352;2023-03-23T05:06:30;11.40;99.90
41262;DHT22;29629;52.532;13.352;2023-03-23T05:08:58;11.50;99.90
41262;DHT22;29629;52.532;13.352;2023-03-23T05:11:25;11.50;99.90
41262;DHT22;29629;52.532;13.352;2023-03-23T05:13:52;11.40;99.90
41262;DHT22;29629;52.532;13.352;2023-03-23T05:16:19;11.40;99.90
41262;DHT22;29629;52.532;13.352;2023-03-23T05:18:46;11.50;99.90
41262;DHT22;29629;52.532;13.352;2023-03-23T05:21:13;11.40;99.90
41262;DHT22;29629;52.532;13.352;2023-03-23T05:23:40;11.30;99.90
41262;DHT22;29629;52.532;13.352;2023-03-23T05:26:09;11.30;99.90
41262;DHT22;29629;52.532;13.352;2023-03-23T05:28:35;11.20;99.90
41262;DHT22;29629;52.532;13.352;2023-03-23T05:31:02;11.30;99.90
41262;DHT22;29629;52.532;13.352;2023-03-23T05:33:30;11.30;99.90
41262;DHT22;29629;52.532;13.352;2023-03-23T05:35:56;11.30;99.90
41262;DHT22;29629;52.532;13.352;2023-03-23T05:38:23;11.30;99.90
41262;DHT22;29629;52.532;13.352;2023-03-23T05:40:50;11.20;99.90
41262;DHT22;29629;52.532;13.352;2023-03-23T05:43:19;11.20;99.90
41262;DHT22;29629;52.532;13.352;2023-03-23T05:45:46;11.10;99.90
41262;DHT22;29629;52.532;13.352;2023-03-23T05:48:13;11.10;99.90
41262;DHT22;29629;52.532;13.352;2023-03-23T05:50:39;11.10;99.90
41262;DHT22;29629;52.532;13.352;2023-03-23T05:53:06;11.10;99.90
41262;DHT22;29629;52.532;13.352;2023-03-23T05:55:32;11.10;99.90
41262;DHT22;29629;52.532;13.352;2023-03-23T05:58:00;11.10;99.90
41262;DHT22;29629;52.532;13.352;2023-03-23T06:00:28;11.10;99.90
41262;DHT22;29629;52.532;13.352;2023-03-23T06:02:55;11.10;99.90
41262;DHT22;29629;52.532;13.352;2023-03-23T06:05:22;11.10;99.90
41262;DHT22;29629;52.532;13.352;2023-03-23T06:07:51;11.00;99.90
41262;DHT22;29629;52.532;13.352;2023-03-23T06:10:17;11.00;99.90
41262;DHT22;29629;52.532;13.352;2023-03-23T06:12:44;11.00;99.90
41262;DHT22;29629;52.532;13.352;2023-03-23T06:15:11;10.90;99.90
41262;DHT22;29629;52.532;13.352;2023-03-23T06:17:39;10.90;99.90
41262;DHT22;29629;52.532;13.352;2023-03-23T06:20:06;10.90;99.90
41262;DHT22;29629;52.532;13.352;2023-03-23T06:22:35;11.00;99.90
41262;DHT22;29629;52.532;13.352;2023-03-23T06:25:02;10.90;99.90
41262;DHT22;29629;52.532;13.352;2023-03-23T06:27:28;10.80;99.90
41262;DHT22;29629;52.532;13.352;2023-03-23T06:29:55;10.80;99.90
41262;DHT22;29629;52.532;13.352;2023-03-23T06:32:22;10.80;99.90
41262;DHT22;29629;52.532;13.352;2023-03-23T06:34:51;10.90;99.90
41262;DHT22;29629;52.532;13.352;2023-03-23T06:37:18;10.90;99.90
41262;DHT22;29629;52.532;13.352;2023-03-23T06:39:45;10.90;99.90
41262;DHT22;29629;52.532;13.352;2023-03-23T06:42:11;10.90;99.90
41262;DHT22;29629;52.532;13.352;2023-03-23T06:44:38;10.90;99.90
41262;DHT22;29629;52.532;13.352;2023-03-23T06:47:05;11.00;99.90
41262;DHT22;29629;52.532;13.352;2023-03-23T06:49:32;11.00;99.90
41262;DHT22;29629;52.532;13.352;2023-03-23T06:52:00;11.00;99.90
41262;DHT22;29629;52.532;13.352;2023-03-23T06:54:28;10.90;99.90
41262;DHT22;29629;52.532;13.352;2023-03-23T06:56:55;11.00;99.90
41262;DHT22;29629;52.532;13.352;2023-03-23T06:59:22;11.00;99.90
41262;DHT22;29629;52.532;13.352;2023-03-23T07:01:49;11.00;99.90
41262;DHT22;29629;52.532;13.352;2023-03-23T07:04:15;11.00;99.90
41262;DHT22;29629;52.532;13.352;2023-03-23T07:06:42;11.00;99.90
41262;DHT22;29629;52.532;13.352;2023-03-23T07:09:10;11.00;99.90
41262;DHT22;29629;52.532;13.352;2023-03-23T07:11:37;11.00;99.90
41262;DHT22;29629;52.532;13.352;2023-03-23T07:14:04;11.00;99.90
41262;DHT22;29629;52.532;13.352;2023-03-23T07:16:31;10.90;99.90
41262;DHT22;29629;52.532;13.352;2023-03-23T07:18:57;10.90;99.90
41262;DHT22;29629;52.532;13.352;2023-03-23T07:21:24;10.90;99.90
41262;DHT22;29629;52.532;13.352;2023-03-23T07:23:51;10.90;99.90
41262;DHT22;29629;52.532;13.352;2023-03-23T07:26:19;10.90;99.90
41262;DHT22;29629;52.532;13.352;2023-03-23T07:28:46;11.00;99.90
41262;DHT22;29629;52.532;13.352;2023-03-23T07:31:13;11.00;99.90
41262;DHT22;29629;52.532;13.352;2023-03-23T07:33:40;11.00;99.90
41262;DHT22;29629;52.532;13.352;2023-03-23T07:36:07;11.00;99.90
41262;DHT22;29629;52.532;13.352;2023-03-23T07:38:34;11.00;99.90
41262;DHT22;29629;52.532;13.352;2023-03-23T07:41:01;11.00;99.90
41262;DHT22;29629;52.532;13.352;2023-03-23T07:43:29;11.10;99.90
41262;DHT22;29629;52.532;13.352;2023-03-23T07:45:56;11.10;99.90
41262;DHT22;29629;52.532;13.352;2023-03-23T07:48:23;11.10;99.90
41262;DHT22;29629;52.532;13.352;2023-03-23T07:50:50;11.20;99.90
41262;DHT22;29629;52.532;13.352;2023-03-23T07:53:16;11.30;99.90
41262;DHT22;29629;52.532;13.352;2023-03-23T07:55:43;11.30;99.90
41262;DHT22;29629;52.532;13.352;2023-03-23T07:58:10;11.30;99.90
41262;DHT22;29629;52.532;13.352;2023-03-23T08:00:38;11.30;99.90
41262;DHT22;29629;52.532;13.352;2023-03-23T08:03:05;11.30;99.90
41262;DHT22;29629;52.532;13.352;2023-03-23T08:05:32;11.30;99.90
41262;DHT22;29629;52.532;13.352;2023-03-23T08:07:59;11.40;99.90
41262;DHT22;29629;52.532;13.352;2023-03-23T08:10:26;11.40;99.90
41262;DHT22;29629;52.532;13.352;2023-03-23T08:12:54;11.40;99.90
41262;DHT22;29629;52.532;13.352;2023-03-23T08:15:21;11.50;99.90
41262;DHT22;29629;52.532;13.352;2023-03-23T08:17:50;11.50;99.90
41262;DHT22;29629;52.532;13.352;2023-03-23T08:20:17;11.50;99.90
41262;DHT22;29629;52.532;13.352;2023-03-23T08:22:50;11.50;99.90
41262;DHT22;29629;52.532;13.352;2023-03-23T08:25:18;11.50;99.90
41262;DHT22;29629;52.532;13.352;2023-03-23T08:27:45;11.50;99.90
41262;DHT22;29629;52.532;13.352;2023-03-23T08:30:13;11.50;99.90
41262;DHT22;29629;52.532;13.352;2023-03-23T08:32:40;11.50;99.90
41262;DHT22;29629;52.532;13.352;2023-03-23T08:35:09;11.40;99.90
41262;DHT22;29629;52.532;13.352;2023-03-23T08:37:36;11.50;99.90
41262;DHT22;29629;52.532;13.352;2023-03-23T08:40:03;11.50;99.90
41262;DHT22;29629;52.532;13.352;2023-03-23T08:42:34;11.50;99.90
41262;DHT22;29629;52.532;13.352;2023-03-23T08:45:01;11.60;99.90
41262;DHT22;29629;52.532;13.352;2023-03-23T08:47:28;11.70;99.90
41262;DHT22;29629;52.532;13.352;2023-03-23T08:49:55;11.80;99.90
41262;DHT22;29629;52.532;13.352;2023-03-23T08:52:23;11.80;99.90
41262;DHT22;29629;52.532;13.352;2023-03-23T08:54:50;11.90;99.90
41262;DHT22;29629;52.532;13.352;2023-03-23T08:57:16;11.80;99.90
41262;DHT22;29629;52.532;13.352;2023-03-23T08:59:44;11.90;99.90
41262;DHT22;29629;52.532;13.352;2023-03-23T09:02:10;11.90;99.90
41262;DHT22;29629;52.532;13.352;2023-03-23T09:04:38;12.00;99.90
41262;DHT22;29629;52.532;13.352;2023-03-23T09:07:04;12.00;99.90
41262;DHT22;29629;52.532;13.352;2023-03-23T09:09:33;12.20;99.90
41262;DHT22;29629;52.532;13.352;2023-03-23T09:12:00;12.20;99.90
41262;DHT22;29629;52.532;13.352;2023-03-23T09:14:27;12.20;99.90
41262;DHT22;29629;52.532;13.352;2023-03-23T09:16:54;12.10;99.90
41262;DHT22;29629;52.532;13.352;2023-03-23T09:19:20;12.10;99.90
41262;DHT22;29629;52.532;13.352;2023-03-23T09:21:47;12.10;99.90
41262;DHT22;29629;52.532;13.352;2023-03-23T09:24:14;12.10;99.90
41262;DHT22;29629;52.532;13.352;2023-03-23T09:26:42;12.20;99.90
41262;DHT22;29629;52.532;13.352;2023-03-23T09:29:09;12.30;99.90
41262;DHT22;29629;52.532;13.352;2023-03-23T09:31:36;12.50;99.90
41262;DHT22;29629;52.532;13.352;2023-03-23T09:34:05;13.00;99.90
41262;DHT22;29629;52.532;13.352;2023-03-23T09:36:35;13.60;99.90
41262;DHT22;29629;52.532;13.352;2023-03-23T09:39:01;13.40;99.90
41262;DHT22;29629;52.532;13.352;2023-03-23T09:41:39;14.20;99.90
41262;DHT22;29629;52.532;13.352;2023-03-23T09:44:13;14.40;99.90
41262;DHT22;29629;52.532;13.352;2023-03-23T09:46:44;15.00;99.90
41262;DHT22;29629;52.532;13.352;2023-03-23T09:49:14;14.10;99.90
41262;DHT22;29629;52.532;13.352;2023-03-23T09:51:43;14.50;99.90
41262;DHT22;29629;52.532;13.352;2023-03-23T09:54:11;14.00;99.90
41262;DHT22;29629;52.532;13.352;2023-03-23T09:56:39;14.20;99.90
41262;DHT22;29629;52.532;13.352;2023-03-23T09:59:09;14.40;99.90
41262;DHT22;29629;52.532;13.352;2023-03-23T10:01:40;14.70;99.90
41262;DHT22;29629;52.532;13.352;2023-03-23T10:04:10;14.50;99.90
41262;DHT22;29629;52.532;13.352;2023-03-23T10:06:38;14.20;99.90
41262;DHT22;29629;52.532;13.352;2023-03-23T10:09:05;14.00;99.90
41262;DHT22;29629;52.532;13.352;2023-03-23T10:11:36;13.70;99.90
41262;DHT22;29629;52.532;13.352;2023-03-23T10:16:51;13.90;99.90
41262;DHT22;29629;52.532;13.352;2023-03-23T10:19:20;13.90;99.90
41262;DHT22;29629;52.532;13.352;2023-03-23T10:21:50;13.90;99.90
41262;DHT22;29629;52.532;13.352;2023-03-23T10:24:19;13.90;99.90
41262;DHT22;29629;52.532;13.352;2023-03-23T10:26:48;14.00;99.90
41262;DHT22;29629;52.532;13.352;2023-03-23T10:29:21;14.20;99.90
41262;DHT22;29629;52.532;13.352;2023-03-23T10:31:52;14.20;99.90
41262;DHT22;29629;52.532;13.352;2023-03-23T10:34:22;14.40;99.90
41262;DHT22;29629;52.532;13.352;2023-03-23T10:36:54;14.70;99.90
41262;DHT22;29629;52.532;13.352;2023-03-23T10:39:23;14.80;99.90
41262;DHT22;29629;52.532;13.352;2023-03-23T10:41:50;14.70;99.90
41262;DHT22;29629;52.532;13.352;2023-03-23T10:44:18;14.80;99.90
41262;DHT22;29629;52.532;13.352;2023-03-23T10:46:46;14.60;99.90
41262;DHT22;29629;52.532;13.352;2023-03-23T10:49:18;14.50;99.90
41262;DHT22;29629;52.532;13.352;2023-03-23T10:51:47;14.40;99.90
41262;DHT22;29629;52.532;13.352;2023-03-23T10:54:24;14.20;99.90
41262;DHT22;29629;52.532;13.352;2023-03-23T10:56:51;14.40;99.90
41262;DHT22;29629;52.532;13.352;2023-03-23T10:59:19;14.50;99.90
41262;DHT22;29629;52.532;13.352;2023-03-23T11:01:48;14.60;99.90
41262;DHT22;29629;52.532;13.352;2023-03-23T11:04:17;14.50;99.90
41262;DHT22;29629;52.532;13.352;2023-03-23T11:06:45;14.40;99.90
41262;DHT22;29629;52.532;13.352;2023-03-23T11:09:12;14.20;99.90
41262;DHT22;29629;52.532;13.352;2023-03-23T11:11:40;14.40;99.90
41262;DHT22;29629;52.532;13.352;2023-03-23T11:14:13;14.50;99.90
41262;DHT22;29629;52.532;13.352;2023-03-23T11:16:42;14.50;99.90
41262;DHT22;29629;52.532;13.352;2023-03-23T11:19:13;14.40;99.90
41262;DHT22;29629;52.532;13.352;2023-03-23T11:21:43;14.40;99.90
41262;DHT22;29629;52.532;13.352;2023-03-23T11:24:12;14.50;99.90
41262;DHT22;29629;52.532;13.352;2023-03-23T11:26:39;14.50;99.90
41262;DHT22;29629;52.532;13.352;2023-03-23T11:29:10;14.60;99.90
41262;DHT22;29629;52.532;13.352;2023-03-23T11:31:39;14.80;99.90
41262;DHT22;29629;52.532;13.352;2023-03-23T11:34:09;14.90;99.90
41262;DHT22;29629;52.532;13.352;2023-03-23T11:36:37;15.10;99.90
41262;DHT22;29629;52.532;13.352;2023-03-23T11:39:19;15.20;99.90
41262;DHT22;29629;52.532;13.352;2023-03-23T11:41:46;15.20;99.90
41262;DHT22;29629;52.532;13.352;2023-03-23T11:44:13;15.10;99.90
41262;DHT22;29629;52.532;13.352;2023-03-23T11:46:48;15.30;99.90
41262;DHT22;29629;52.532;13.352;2023-03-23T11:49:20;15.30;99.90
41262;DHT22;29629;52.532;13.352;2023-03-23T11:51:49;15.60;99.90
41262;DHT22;29629;52.532;13.352;2023-03-23T11:54:20;15.50;99.90
41262;DHT22;29629;52.532;13.352;2023-03-23T11:56:50;15.50;99.90
41262;DHT22;29629;52.532;13.352;2023-03-23T11:59:18;15.60;99.90
41262;DHT22;29629;52.532;13.352;2023-03-23T12:01:50;15.40;99.90
41262;DHT22;29629;52.532;13.352;2023-03-23T12:07:12;15.40;99.90
41262;DHT22;29629;52.532;13.352;2023-03-23T12:09:45;15.50;99.90
41262;DHT22;29629;52.532;13.352;2023-03-23T12:12:16;15.60;99.90
41262;DHT22;29629;52.532;13.352;2023-03-23T12:14:47;15.50;99.90
41262;DHT22;29629;52.532;13.352;2023-03-23T12:17:20;15.30;99.90
41262;DHT22;29629;52.532;13.352;2023-03-23T12:19:51;15.10;99.90
41262;DHT22;29629;52.532;13.352;2023-03-23T12:22:24;15.20;99.90
41262;DHT22;29629;52.532;13.352;2023-03-23T12:24:59;15.20;99.90
41262;DHT22;29629;52.532;13.352;2023-03-23T12:27:30;15.10;99.90
41262;DHT22;29629;52.532;13.352;2023-03-23T12:30:11;15.10;99.90
41262;DHT22;29629;52.532;13.352;2023-03-23T12:32:50;15.10;99.90
41262;DHT22;29629;52.532;13.352;2023-03-23T12:35:24;15.10;99.90
41262;DHT22;29629;52.532;13.352;2023-03-23T12:37:54;15.20;99.90
41262;DHT22;29629;52.532;13.352;2023-03-23T12:40:28;15.30;99.90
41262;DHT22;29629;52.532;13.352;2023-03-23T12:42:59;15.30;99.90
41262;DHT22;29629;52.532;13.352;2023-03-23T12:45:39;15.20;99.90
41262;DHT22;29629;52.532;13.352;2023-03-23T12:48:10;15.20;99.90
41262;DHT22;29629;52.532;13.352;2023-03-23T12:50:38;15.20;99.90
41262;DHT22;29629;52.532;13.352;2023-03-23T12:53:08;15.20;99.90
41262;DHT22;29629;52.532;13.352;2023-03-23T12:55:40;15.40;99.90
41262;DHT22;29629;52.532;13.352;2023-03-23T12:58:10;15.50;99.90
41262;DHT22;29629;52.532;13.352;2023-03-23T13:00:48;16.30;99.90
41262;DHT22;29629;52.532;13.352;2023-03-23T13:03:18;16.20;99.90
41262;DHT22;29629;52.532;13.352;2023-03-23T13:05:47;16.20;99.90
41262;DHT22;29629;52.532;13.352;2023-03-23T13:08:21;16.60;99.90
41262;DHT22;29629;52.532;13.352;2023-03-23T13:10:51;17.20;99.90
41262;DHT22;29629;52.532;13.352;2023-03-23T13:13:20;16.90;99.90
41262;DHT22;29629;52.532;13.352;2023-03-23T13:15:51;16.90;99.90
41262;DHT22;29629;52.532;13.352;2023-03-23T13:18:23;17.80;99.90
41262;DHT22;29629;52.532;13.352;2023-03-23T13:20:53;17.70;99.90
41262;DHT22;29629;52.532;13.352;2023-03-23T13:23:21;17.90;99.90
41262;DHT22;29629;52.532;13.352;2023-03-23T13:25:51;18.50;99.90
41262;DHT22;29629;52.532;13.352;2023-03-23T13:28:19;19.00;99.90
41262;DHT22;29629;52.532;13.352;2023-03-23T13:30:57;18.20;99.90
41262;DHT22;29629;52.532;13.352;2023-03-23T13:33:25;19.10;99.90
41262;DHT22;29629;52.532;13.352;2023-03-23T13:35:52;18.00;99.90
41262;DHT22;29629;52.532;13.352;2023-03-23T13:38:19;18.30;99.90
41262;DHT22;29629;52.532;13.352;2023-03-23T13:40:47;18.70;99.90
41262;DHT22;29629;52.532;13.352;2023-03-23T13:43:18;19.10;99.90
41262;DHT22;29629;52.532;13.352;2023-03-23T13:45:51;19.30;99.90
41262;DHT22;29629;52.532;13.352;2023-03-23T13:48:20;21.10;99.90
41262;DHT22;29629;52.532;13.352;2023-03-23T13:50:49;19.50;99.90
41262;DHT22;29629;52.532;13.352;2023-03-23T13:53:22;19.60;99.90
41262;DHT22;29629;52.532;13.352;2023-03-23T13:55:50;20.30;99.90
41262;DHT22;29629;52.532;13.352;2023-03-23T13:58:22;19.40;99.90
41262;DHT22;29629;52.532;13.352;2023-03-23T14:01:00;17.90;99.90
41262;DHT22;29629;52.532;13.352;2023-03-23T14:03:32;18.30;99.90
41262;DHT22;29629;52.532;13.352;2023-03-23T14:06:04;17.40;99.90
41262;DHT22;29629;52.532;13.352;2023-03-23T14:08:39;18.60;99.90
41262;DHT22;29629;52.532;13.352;2023-03-23T14:11:10;19.30;99.90
41262;DHT22;29629;52.532;13.352;2023-03-23T14:13:41;19.30;99.90
41262;DHT22;29629;52.532;13.352;2023-03-23T14:16:13;19.30;99.90
41262;DHT22;29629;52.532;13.352;2023-03-23T14:18:41;18.60;99.90
41262;DHT22;29629;52.532;13.352;2023-03-23T14:21:13;18.10;99.90
41262;DHT22;29629;52.532;13.352;2023-03-23T14:23:40;18.10;99.90
41262;DHT22;29629;52.532;13.352;2023-03-23T14:26:09;18.60;99.90
41262;DHT22;29629;52.532;13.352;2023-03-23T14:28:40;18.00;99.90
41262;DHT22;29629;52.532;13.352;2023-03-23T14:31:12;17.90;99.90
41262;DHT22;29629;52.532;13.352;2023-03-23T14:33:41;18.10;99.90
41262;DHT22;29629;52.532;13.352;2023-03-23T14:36:07;17.90;99.90
41262;DHT22;29629;52.532;13.352;2023-03-23T14:38:34;17.10;99.90
41262;DHT22;29629;52.532;13.352;2023-03-23T14:41:02;16.80;99.90
41262;DHT22;29629;52.532;13.352;2023-03-23T14:43:29;16.80;99.90
41262;DHT22;29629;52.532;13.352;2023-03-23T14:45:59;16.60;99.90
41262;DHT22;29629;52.532;13.352;2023-03-23T14:48:27;16.60;99.90
41262;DHT22;29629;52.532;13.352;2023-03-23T14:50:56;16.70;99.90
41262;DHT22;29629;52.532;13.352;2023-03-23T14:53:23;16.80;99.90
41262;DHT22;29629;52.532;13.352;2023-03-23T14:55:51;16.60;99.90
41262;DHT22;29629;52.532;13.352;2023-03-23T14:58:19;16.40;99.90
41262;DHT22;29629;52.532;13.352;2023-03-23T15:00:47;16.70;99.90
41262;DHT22;29629;52.532;13.352;2023-03-23T15:03:17;16.80;99.90
41262;DHT22;29629;52.532;13.352;2023-03-23T15:05:45;16.70;99.90
41262;DHT22;29629;52.532;13.352;2023-03-23T15:08:13;16.70;99.90
41262;DHT22;29629;52.532;13.352;2023-03-23T15:10:40;16.80;99.90
41262;DHT22;29629;52.532;13.352;2023-03-23T15:13:09;16.80;99.90
41262;DHT22;29629;52.532;13.352;2023-03-23T15:15:37;16.80;99.90
41262;DHT22;29629;52.532;13.352;2023-03-23T15:18:04;16.70;99.90
41262;DHT22;29629;52.532;13.352;2023-03-23T15:20:47;16.60;99.90
41262;DHT22;29629;52.532;13.352;2023-03-23T15:23:14;16.60;99.90
41262;DHT22;29629;52.532;13.352;2023-03-23T15:25:47;16.60;99.90
41262;DHT22;29629;52.532;13.352;2023-03-23T15:28:15;16.60;99.90
41262;DHT22;29629;52.532;13.352;2023-03-23T15:30:46;16.60;99.90
41262;DHT22;29629;52.532;13.352;2023-03-23T15:33:13;16.50;99.90
41262;DHT22;29629;52.532;13.352;2023-03-23T15:35:44;16.50;99.90